• Join FlightAware (Why Join?)
  • Login
  • US Flag 
08:23AM EDT


 

Airport Tracker/Info


-or-


 

Live Flight TrackerFlight Track Log ✈ JIA2277 ✈ 31-Jul-2013 ✈ KCLT - KGNV

Flight Track Log - Related Links

Times and Time Zones

All times are in EDT time to prevent confusion due to time zone crossing. See the JIA2277 flight status page for this flight to view local times or setup timezone preferences in your user account.

Time Position Orientation Groundspeed Altitude Reporting Facility
EDT Latitude Longitude Course Direction KTS MPH feet Rate Location/Type
12:56PM 35.1886 -80.9358 192° South 171 197 1,500  Level Atlanta Center
12:57PM 35.1511 -80.9319 175° South 183 211 2,900 1,980 Climbing Atlanta Center
12:58PM 35.0631 -80.9150 171° South 268 308 5,700 2,280 Climbing Atlanta Center
12:59PM 34.8950 -80.9837 224° Southwest  Level FlightAware Approximate
12:59PM 34.9922 -80.9253 187° South 271 312 8,300  Level Atlanta Center
01:00PM 34.7950 -81.0289 190° South  Level FlightAware Approximate
01:01PM 34.6985 -81.0670 192° South  Level FlightAware Approximate
01:01PM 34.8836 -80.9717 199° South 275 316 11,600  Level Jacksonville Center
01:02PM 34.5890 -81.0944 192° South  Level FlightAware Approximate
01:02PM 34.8069 -81.0014 198° South 291 335 12,600  Level Jacksonville Center
01:03PM 34.7178 -81.0386 199° South 323 372 13,600 1,320 Climbing Jacksonville Center
01:05PM 34.5289 -81.1108 197° South 350 403 16,600 1,380 Climbing Jacksonville Center
01:06PM 34.4250 -81.1356 191° South 355 409 17,800 1,140 Climbing Jacksonville Center
01:07PM 34.3253 -81.1603 192° South 355 409 18,900 1,020 Climbing Jacksonville Center
01:08PM 34.2275 -81.1772 188° South 355 409 19,900 900 Climbing Jacksonville Center
01:09PM 34.1233 -81.2019 191° South 360 414 20,700 840 Climbing Jacksonville Center
01:10PM 34.0236 -81.2264 191° South 371 427 21,600 780 Climbing Jacksonville Center
01:11PM 33.9175 -81.2508 191° South 382 440 22,300 660 Climbing Jacksonville Center
01:12PM 33.8114 -81.2753 191° South 387 445 23,000 540 Climbing Jacksonville Center
01:13PM 33.7117 -81.2997 192° South 402 463 23,400 420 Climbing Jacksonville Center
01:14PM 33.6014 -81.3267 192° South 408 470 23,900 540 Climbing Jacksonville Center
01:15PM 33.4828 -81.3611 194° South 408 470 24,500 540 Climbing Jacksonville Center
01:16PM 33.3747 -81.4078 200° South 408 470 25,000 480 Climbing Jacksonville Center
01:17PM 33.2708 -81.4492 198° South 408 470 25,500 420 Climbing Jacksonville Center
01:18PM 33.1775 -81.4903 200° South 403 464 25,900 420 Climbing Jacksonville Center
01:19PM 33.0714 -81.5342 199° South 403 464 26,400 480 Climbing Jacksonville Center
01:20PM 32.9633 -81.5753 198° South 403 464 26,900 480 Climbing Jacksonville Center
01:21PM 32.8575 -81.6214 200° South 403 464 27,400 480 Climbing Jacksonville Center
01:22PM 32.7533 -81.6625 198° South 403 464 27,900 540 Climbing Jacksonville Center
01:23PM 32.6517 -81.7058 200° South 395 455 28,500 600 Climbing Jacksonville Center
01:24PM 32.5392 -81.7517 199° South 390 449 29,100 480 Climbing Jacksonville Center
01:25PM 32.4372 -81.7922 199° South 390 449 29,500 420 Climbing Jacksonville Center
01:26PM 32.3353 -81.8353 200° South 390 449 30,000 240 Climbing Jacksonville Center
01:27PM 32.2397 -81.8708 197° South 385 443 30,000  Level Jacksonville Center
01:28PM 32.1253 -81.9186 199° South 390 449 30,000  Level Jacksonville Center
01:29PM 32.0150 -81.9639 199° South 405 466 30,000  Level Jacksonville Center
01:30PM 31.9067 -82.0067 199° South 412 474 30,000  Level Jacksonville Center
01:31PM 31.8067 -82.0442 198° South 407 468 30,000 -240 Level Jacksonville Center
01:32PM 31.6858 -82.0917 198° South 416 479 29,600 -720 Descending Jacksonville Center
01:33PM 31.5797 -82.1392 201° Southwest 421 484 28,600 -960 Descending Jacksonville Center
01:34PM 31.4672 -82.1839 199° South 421 484 27,700 -960 Descending Jacksonville Center
01:35PM 31.3692 -82.2211 198° South 428 493 26,700 -1,020 Descending Jacksonville Center
01:36PM 31.2608 -82.2631 198° South 428 493 25,700 -1,020 Descending Jacksonville Center
01:37PM 31.1506 -82.3028 197° South 423 487 24,700 -1,080 Descending Jacksonville Center
01:38PM 31.0442 -82.3444 199° South 423 487 23,600 -1,020 Descending Jacksonville Center
01:39PM 30.9378 -82.3864 199° South 417 480 22,700 -960 Descending Jacksonville Center
01:40PM 30.8336 -82.4281 199° South 411 473 21,700 -1,020 Descending Jacksonville Center
01:41PM 30.7272 -82.4647 197° South 406 467 20,700 -1,020 Descending Jacksonville Center
01:42PM 30.6272 -82.5064 200° South 401 461 19,700 -1,020 Descending Jacksonville Center
01:43PM 30.5269 -82.5453 198° South 391 450 18,700 -900 Descending Jacksonville Center
01:44PM 30.4206 -82.5603 187° South 381 438 17,900 -900 Descending Jacksonville Center
01:45PM 30.3206 -82.5844 192° South 376 433 16,900 -960 Descending Jacksonville Center
01:46PM 30.2244 -82.6089 192° South 370 426 16,000 -780 Descending Jacksonville Center
01:47PM 30.1306 -82.6092 180° South 353 406 15,400 -1,500 Descending Jacksonville Center
01:48PM 30.0489 -82.5733 159° South 317 365 13,000 -2,700 Descending Jacksonville Center
01:49PM 29.9694 -82.5258 153° Southeast 308 354 10,000 -2,100 Descending Jacksonville Center
01:50PM 29.9025 -82.4756 147° Southeast 295 339 8,900 -1,380 Descending Jacksonville Center
01:51PM 29.8356 -82.4281 148° Southeast 289 333 7,300 -1,680 Descending Jacksonville Center
01:52PM 29.7853 -82.3661 133° Southeast 264 304 5,600 -2,040 Descending Jacksonville Center
01:53PM 29.7683 -82.2967 106° East 245 282 3,300 -1,320 Descending Jacksonville Center
01:54PM 29.7492 -82.2156 105° East 233 268 3,000 -600 Descending Jacksonville Center
01:55PM 29.7217 -82.1631 121° Southeast 176 203 2,000 -600 Descending Jacksonville Center
01:56PM 29.6883 -82.1706 191° South 136 157 1,700 -600 Descending Jacksonville Center
01:57PM 29.6781 -82.2089 253° West 86 99 1,000 -480 Descending Jacksonville Center
01:58PM 29.6781 -82.2400 270° West 166 191 800 -120 Descending Jacksonville Center
02:00PM 29.6781 -82.2400 180° South 166 191 800  Level Jacksonville Center